KMWL

Mineral Wells Airport

Mineral Wells, Texas, USA
METAR KMWL 250053Z AUTO 11006KT 10SM CLR 28/19 A2996 RMK AO2 SLP131 T02830194
Observed Flight Rules
May-25 @ 00:53 UTC (15 minutes ago) Visual Flight Rules
Wind Visibility Clouds
110° at 6 knots 10 miles
  • Clear skies
Temperatures Readings
Current 28°C / 82°F
Dewpoint 19°C / 66°F
Humidity 58%
Altimeter 29.96" Hg
Pressure 1013.1 hPa
Elevation 284
METAR KMWL 250053Z AUTO 11006KT 10SM CLR 28/19 A2996 RMK AO2 SLP131 T02830194
Observed Flight Rules
May-25 @ 00:53 UTC
(15 minutes ago)
VFR
Wind Visibility
110° at 6 knots 10 miles
Clouds
  • Clear skies
Temperature Dewpoint
28°C / 82°F 19°C / 66°F
Humidity Altimeter Pressure
58% 29.96" Hg 1013.1 hPa